Time;durP1;ratioP1;P1;durP2;ratioP2;P2;SDS_P1;SDS_P2;PMS_P1;PMS_P2;Temp;Humidity;BMP_temperature;BMP_pressure;BME280_temperature;BME280_humidity;BME280_pressure;Samples;Min_cycle;Max_cycle;Signal;HPM_P1;HPM_P2
2023/06/05 00:00:44;;;;;;;4.50;1.45;;;;;;;18.73;36.10;99924.03;1087267;54;20034;-83
2023/06/05 00:01:47;;;;;;;4.55;1.60;;;;;;;18.77;35.99;99930.72;1087153;54;20130;-83
2023/06/05 00:02:49;;;;;;;4.95;1.60;;;;;;;18.74;35.99;99928.41;1087244;54;20034;-84
2023/06/05 00:03:53;;;;;;;4.22;1.55;;;;;;;18.75;35.79;99924.69;1087638;39;20381;-84
2023/06/05 00:04:54;;;;;;;3.92;1.65;;;;;;;18.77;35.99;99925.31;1087439;54;20110;-85
2023/06/05 00:05:57;;;;;;;4.90;1.58;;;;;;;18.75;36.12;99927.38;1087162;47;20066;-81
2023/06/05 00:07:00;;;;;;;5.00;1.90;;;;;;;18.73;35.87;99920.50;1087077;54;20895;-83
2023/06/05 00:08:03;;;;;;;3.88;1.60;;;;;;;18.73;36.11;99917.81;1087095;54;20128;-82
2023/06/05 00:09:05;;;;;;;3.53;1.45;;;;;;;18.73;35.99;99917.81;1087450;54;20049;-82
2023/06/05 00:10:10;;;;;;;3.40;1.70;;;;;;;18.70;36.21;99921.75;1087531;54;20098;-84
2023/06/05 00:11:14;;;;;;;4.22;1.80;;;;;;;18.67;36.32;99919.44;1087461;54;20112;-82
2023/06/05 00:12:17;;;;;;;3.88;1.80;;;;;;;18.67;36.21;99922.16;1087461;54;20034;-83
2023/06/05 00:13:18;;;;;;;3.97;1.90;;;;;;;18.68;36.28;99918.41;1087141;46;20109;-85
2023/06/05 00:14:22;;;;;;;3.90;1.98;;;;;;;18.69;36.21;99918.19;1087311;47;20057;-83
2023/06/05 00:15:23;;;;;;;3.65;1.88;;;;;;;18.65;36.33;99914.22;1087293;54;20052;-84
2023/06/05 00:16:27;;;;;;;6.22;1.85;;;;;;;18.63;36.50;99920.84;1087360;54;20035;-83
2023/06/05 00:17:30;;;;;;;4.63;1.88;;;;;;;18.61;36.52;99915.66;1087405;54;20031;-82
2023/06/05 00:18:33;;;;;;;4.38;1.98;;;;;;;18.63;36.32;99913.59;1087103;47;20034;-84
2023/06/05 00:19:35;;;;;;;3.88;1.60;;;;;;;18.68;36.04;99918.41;1087231;54;20030;-84
2023/06/05 00:20:38;;;;;;;4.32;1.55;;;;;;;18.63;36.48;99928.97;1087090;47;20038;-80
2023/06/05 00:21:39;;;;;;;3.67;1.70;;;;;;;18.49;36.51;99917.25;1087050;54;20038;-83
2023/06/05 00:22:44;;;;;;;5.30;1.92;;;;;;;18.48;36.83;99919.13;1087364;54;20042;-82
2023/06/05 00:23:45;;;;;;;3.53;1.55;;;;;;;18.40;36.89;99927.41;1086858;47;20693;-83
2023/06/05 00:24:49;;;;;;;5.00;1.55;;;;;;;18.44;36.87;99923.25;1087240;54;20039;-81
2023/06/05 00:25:50;;;;;;;4.45;1.60;;;;;;;18.42;36.96;99922.63;1087428;54;20046;-80
2023/06/05 00:26:56;;;;;;;5.95;1.50;;;;;;;18.37;37.03;99925.09;1087372;54;20046;-82
2023/06/05 00:27:57;;;;;;;3.97;1.80;;;;;;;18.30;36.90;99919.66;1087180;47;20034;-84
2023/06/05 00:29:01;;;;;;;4.40;1.85;;;;;;;18.24;37.31;99926.69;1087085;54;20090;-85
2023/06/05 00:30:03;;;;;;;4.15;1.70;;;;;;;18.21;37.54;99921.69;1087346;54;20030;-83
2023/06/05 00:31:07;;;;;;;3.70;1.65;;;;;;;18.21;37.47;99926.25;1086985;47;20046;-78
2023/06/05 00:32:08;;;;;;;5.03;1.52;;;;;;;18.21;37.39;99927.09;1086974;54;20030;-83
2023/06/05 00:33:12;;;;;;;4.32;1.55;;;;;;;18.18;37.44;99924.78;1087368;54;20049;-83
2023/06/05 00:34:13;;;;;;;4.60;1.90;;;;;;;18.10;37.74;99924.94;1087123;47;20026;-80
2023/06/05 00:35:17;;;;;;;5.75;1.70;;;;;;;18.09;37.50;99923.25;1087151;54;20048;-83
2023/06/05 00:36:22;;;;;;;3.85;1.50;;;;;;;18.20;37.47;99924.56;1087322;54;20030;-85
2023/06/05 00:37:26;;;;;;;4.28;1.52;;;;;;;18.21;37.49;99926.25;1087142;47;20089;-83
2023/06/05 00:38:28;;;;;;;4.78;1.88;;;;;;;18.14;37.77;99923.50;1087065;54;20098;-82
2023/06/05 04:25:54;;;;;;;6.03;2.47;;;;;;;15.21;45.80;99974.16;1087160;54;20022;-84
2023/06/05 04:26:55;;;;;;;4.38;1.85;;;;;;;15.20;45.59;99973.28;1087172;47;20030;-82
2023/06/05 04:27:59;;;;;;;5.18;2.55;;;;;;;15.13;46.03;99975.03;1086866;47;20106;-81
2023/06/05 04:29:02;;;;;;;6.07;1.98;;;;;;;15.16;45.85;99977.34;1086845;47;20027;-82
2023/06/05 04:30:07;;;;;;;3.75;2.00;;;;;;;15.19;46.01;99973.47;1087004;47;20027;-83
2023/06/05 04:31:08;;;;;;;5.38;2.00;;;;;;;15.11;46.15;99974.34;1086797;54;20082;-81
2023/06/05 04:32:12;;;;;;;6.40;2.08;;;;;;;15.16;45.58;99974.66;1087740;39;20882;-83
2023/06/05 04:33:13;;;;;;;5.07;2.20;;;;;;;15.13;45.61;99977.72;1087025;47;20030;-83
2023/06/05 04:34:17;;;;;;;4.70;2.05;;;;;;;15.12;46.13;99970.66;1087022;46;20030;-81
2023/06/05 04:35:20;;;;;;;4.55;1.70;;;;;;;15.13;45.74;99978.53;1089459;39;20891;-83
2023/06/05 04:36:23;;;;;;;5.70;1.95;;;;;;;15.16;45.90;99971.94;1086933;54;20130;-83
2023/06/05 04:37:24;;;;;;;6.50;2.22;;;;;;;15.20;46.01;99975.16;1086860;54;20090;-84
2023/06/05 04:38:29;;;;;;;5.38;1.98;;;;;;;15.12;46.09;99976.03;1086860;47;20026;-85
2023/06/05 04:39:31;;;;;;;5.20;2.25;;;;;;;15.20;45.80;99973.28;1086760;47;20023;-85
2023/06/05 04:40:34;;;;;;;6.80;2.20;;;;;;;15.18;45.55;99963.72;1086867;54;21096;-80
2023/06/05 04:41:44;;;;;;;6.18;3.08;;;;;;;15.21;45.49;99971.47;1086888;54;20034;-84
2023/06/05 04:42:48;;;;;;;7.13;2.72;;;;;;;15.35;45.36;99959.91;1086913;47;20164;-82
2023/06/05 04:43:54;;;;;;;5.40;2.47;;;;;;;15.44;44.98;99958.00;1089394;31;21069;-83
2023/06/05 04:44:57;;;;;;;6.88;2.15;;;;;;;15.46;44.80;99960.53;1086850;47;20066;-83
2023/06/05 04:46:02;;;;;;;7.13;2.28;;;;;;;15.40;44.68;99967.44;1087186;46;20879;-82
2023/06/05 04:47:06;;;;;;;6.00;2.80;;;;;;;15.41;44.58;99963.75;1086832;47;20131;-83
2023/06/05 04:48:10;;;;;;;5.07;2.92;;;;;;;15.36;44.43;99961.59;1086770;47;20030;-85
2023/06/05 04:49:12;;;;;;;5.70;2.30;;;;;;;15.47;44.13;99963.03;1086826;47;20026;-83
2023/06/05 04:50:26;;;;;;;4.68;2.65;;;;;;;15.43;44.33;99967.94;1087715;31;20974;-85
2023/06/05 04:51:31;;;;;;;4.95;2.60;;;;;;;15.42;44.22;99970.81;1086871;46;20078;-83
2023/06/05 04:52:39;;;;;;;5.65;2.47;;;;;;;15.53;44.18;99966.84;1086841;47;20027;-80
2023/06/05 04:53:42;;;;;;;5.68;2.20;;;;;;;15.54;43.78;99972.06;1086821;47;20022;-80
2023/06/05 04:54:46;;;;;;;6.00;2.03;;;;;;;15.51;43.98;99971.59;1086736;47;20038;-83
2023/06/05 04:55:50;;;;;;;6.07;2.00;;;;;;;15.54;43.83;99968.53;1086910;54;20030;-86
2023/06/05 04:56:56;;;;;;;6.38;2.05;;;;;;;15.58;43.64;99970.69;1086961;46;20031;-82
2023/06/05 04:58:00;;;;;;;4.15;1.85;;;;;;;15.64;43.51;99974.53;1086926;47;20033;-83
2023/06/05 04:59:04;;;;;;;5.05;1.80;;;;;;;15.78;43.51;99977.44;1086847;47;20053;-84
2023/06/05 05:00:11;;;;;;;3.80;1.90;;;;;;;15.69;43.68;99969.44;1086991;54;20037;-82
2023/06/05 05:01:12;;;;;;;4.15;1.80;;;;;;;15.74;43.39;99969.75;1086822;47;20029;-80
2023/06/05 05:02:16;;;;;;;4.47;1.55;;;;;;;15.69;43.68;99966.72;1087113;47;20027;-82
2023/06/05 05:03:21;;;;;;;5.00;1.85;;;;;;;15.69;43.58;99966.72;1086927;47;20031;-81
2023/06/05 05:04:23;;;;;;;5.10;2.20;;;;;;;15.69;43.55;99972.13;1087182;47;20026;-80
2023/06/05 05:05:28;;;;;;;4.72;1.83;;;;;;;15.75;43.21;99960.63;1087109;47;20057;-84
2023/06/05 05:06:31;;;;;;;5.25;1.92;;;;;;;15.60;43.28;99965.13;1086761;47;20026;-84
2023/06/05 05:07:35;;;;;;;9.85;2.45;;;;;;;15.67;43.38;99971.50;1086654;47;20033;-82
2023/06/05 05:08:36;;;;;;;4.53;1.90;;;;;;;15.56;43.43;99975.41;1086746;46;20026;-82
2023/06/05 05:09:40;;;;;;;5.80;2.08;;;;;;;15.69;42.97;99961.34;1086588;47;20026;-83
2023/06/05 05:10:41;;;;;;;4.40;2.00;;;;;;;15.78;43.13;99963.97;1086677;47;20022;-83
2023/06/05 05:11:46;;;;;;;4.57;1.73;;;;;;;15.73;43.14;99972.59;1086629;47;20023;-79
2023/06/05 05:12:49;;;;;;;5.75;1.90;;;;;;;15.83;42.91;99967.81;1087803;39;20865;-81
2023/06/05 05:13:53;;;;;;;7.75;1.98;;;;;;;15.78;43.10;99963.97;1086768;47;20031;-82
2023/06/05 05:14:55;;;;;;;4.90;2.38;;;;;;;15.74;43.46;99963.50;1086412;47;20023;-83
2023/06/05 05:15:59;;;;;;;6.25;1.70;;;;;;;15.78;43.23;99961.28;1086415;47;20026;-83
2023/06/05 05:17:01;;;;;;;5.10;2.35;;;;;;;15.84;43.29;99968.69;1086548;47;20022;-83
2023/06/05 05:18:05;;;;;;;3.53;1.50;;;;;;;16.01;42.69;99962.13;1086756;47;20027;-83
2023/06/05 05:19:07;;;;;;;4.93;1.85;;;;;;;16.11;42.81;99963.72;1086659;47;20948;-83
2023/06/05 05:20:12;;;;;;;4.95;2.47;;;;;;;15.93;43.04;99975.69;1086520;47;20102;-84
2023/06/05 05:21:14;;;;;;;6.63;3.58;;;;;;;15.95;42.95;99962.88;1086511;47;20023;-85
2023/06/05 05:22:19;;;;;;;6.53;3.00;;;;;;;15.90;43.04;99967.94;1090213;39;20820;-82
2023/06/05 05:23:23;;;;;;;6.85;3.00;;;;;;;15.90;43.10;99965.25;1087008;47;20051;-86
2023/06/05 05:24:30;;;;;;;4.25;2.30;;;;;;;15.80;43.21;99970.88;1087283;47;20027;-85
2023/06/05 05:25:33;;;;;;;5.25;2.30;;;;;;;15.85;42.85;99975.75;1086842;47;20106;-88
2023/06/05 05:26:34;;;;;;;4.05;2.17;;;;;;;16.00;42.67;99967.72;1086366;54;20069;-85
2023/06/05 05:27:38;;;;;;;5.30;2.00;;;;;;;16.16;42.47;99969.41;1086292;47;21006;-87
2023/06/05 05:28:42;;;;;;;5.93;2.10;;;;;;;16.20;42.40;99963.44;1088087;39;21331;-86
2023/06/05 05:29:45;;;;;;;4.95;1.90;;;;;;;16.36;42.11;99969.72;1086883;47;20027;-86
2023/06/05 05:30:47;;;;;;;3.80;1.90;;;;;;;16.44;41.72;99974.16;1086849;47;20034;-86
2023/06/05 05:31:51;;;;;;;3.25;1.48;;;;;;;16.56;41.70;99974.56;1090180;31;20914;-87
2023/06/05 05:32:52;;;;;;;3.80;1.45;;;;;;;16.65;41.55;99968.88;1086731;47;20038;-83
2023/06/05 05:33:57;;;;;;;3.50;1.65;;;;;;;16.72;41.41;99962.75;1086738;47;20026;-85
2023/06/05 05:35:01;;;;;;;3.40;1.45;;;;;;;16.78;41.33;99962.00;1086864;47;21277;-85
2023/06/05 05:36:02;;;;;;;4.10;1.60;;;;;;;16.83;41.36;99967.66;1086837;47;20059;-87
2023/06/05 05:37:07;;;;;;;3.10;1.23;;;;;;;16.88;41.01;99972.50;1086729;47;20027;-85
2023/06/05 05:38:08;;;;;;;2.85;1.30;;;;;;;16.89;41.32;99964.22;1086738;47;21213;-86
2023/06/05 05:39:12;;;;;;;4.65;1.48;;;;;;;16.98;40.84;99970.38;1086816;47;20031;-85
2023/06/05 05:40:13;;;;;;;2.83;1.17;;;;;;;17.05;41.02;99970.47;1087177;47;20030;-86
2023/06/05 05:41:17;;;;;;;4.00;1.60;;;;;;;17.03;40.91;99967.97;1088296;39;21353;-86
2023/06/05 05:42:18;;;;;;;4.93;1.30;;;;;;;17.09;40.77;99966.38;1086996;47;20026;-86
2023/06/05 05:43:22;;;;;;;4.60;1.60;;;;;;;17.15;40.98;99976.41;1087099;47;20037;-86
2023/06/05 05:44:26;;;;;;;4.10;1.80;;;;;;;17.19;40.82;99966.06;1087307;54;20053;-87
2023/06/05 05:45:30;;;;;;;3.50;1.35;;;;;;;17.21;40.80;99972.94;1087389;47;20026;-87
2023/06/05 05:46:31;;;;;;;3.20;1.20;;;;;;;17.29;40.53;99966.59;1087393;47;20053;-87
2023/06/05 05:47:35;;;;;;;4.28;1.30;;;;;;;17.31;40.60;99976.16;1087399;47;20035;-86
2023/06/05 05:49:11;;;;;;;3.25;1.52;;;;;;;16.76;41.34;99973.00;1087657;47;20108;-87
2023/06/05 05:50:21;;;;;;;3.60;1.77;;;;;;;16.72;41.71;99978.94;1087178;47;20042;-86
2023/06/05 05:51:26;;;;;;;4.15;1.75;;;;;;;16.86;41.46;99977.25;1087196;54;20039;-86
2023/06/05 05:52:27;;;;;;;5.03;1.65;;;;;;;16.96;41.25;99975.13;1086906;54;20026;-84
2023/06/05 08:38:40;;;;;;;5.00;2.10;;;;;;;23.87;33.35;99905.13;1086291;54;19995;-83
2023/06/05 08:39:44;;;;;;;3.58;1.77;;;;;;;23.69;34.02;99908.78;1086789;54;20042;-84
2023/06/05 08:40:50;;;;;;;4.22;1.85;;;;;;;23.77;33.87;99904.88;1086872;54;20035;-85
2023/06/05 08:41:55;;;;;;;4.13;2.22;;;;;;;23.87;33.78;99905.13;1086929;54;20034;-85
2023/06/05 08:42:57;;;;;;;3.88;1.92;;;;;;;24.21;33.44;99904.56;1086866;54;20038;-82
2023/06/05 08:44:00;;;;;;;4.03;2.00;;;;;;;24.33;33.14;99908.13;1086939;54;20034;-79
2023/06/05 08:45:02;;;;;;;4.93;2.03;;;;;;;24.65;32.65;99896.78;1086539;54;20037;-83
2023/06/05 08:46:10;;;;;;;3.90;1.80;;;;;;;24.90;32.42;99901.94;1086973;54;20062;-81
2023/06/05 08:47:16;;;;;;;4.40;2.10;;;;;;;25.06;32.19;99900.34;1087245;47;20078;-87
2023/06/05 08:48:20;;;;;;;3.70;1.90;;;;;;;25.22;31.79;99897.91;1087084;47;20030;-81
2023/06/05 08:49:29;;;;;;;4.72;2.10;;;;;;;25.29;31.88;99909.50;1087020;54;20034;-82
2023/06/05 08:50:30;;;;;;;3.67;1.73;;;;;;;25.42;31.87;99907.56;1086817;47;20994;-82
2023/06/05 08:51:35;;;;;;;3.70;1.70;;;;;;;25.45;31.53;99909.81;1087018;54;20077;-82
2023/06/05 08:52:38;;;;;;;3.53;1.60;;;;;;;25.44;31.81;99908.16;1086862;47;20037;-79
2023/06/05 08:53:45;;;;;;;3.92;1.70;;;;;;;25.47;31.91;99899.44;1087221;54;20042;-81
2023/06/05 08:54:49;;;;;;;4.53;2.00;;;;;;;25.62;31.57;99896.97;1086925;54;20041;-81
2023/06/05 08:55:54;;;;;;;4.00;2.00;;;;;;;25.14;31.94;99898.28;1087050;47;20023;-85
2023/06/05 08:56:58;;;;;;;3.92;2.10;;;;;;;25.32;32.12;99903.53;1087341;54;20049;-83
2023/06/05 08:59:08;;;;;;;4.30;2.17;;;;;;;25.31;31.77;99899.16;1088938;39;20721;-80
2023/06/05 09:00:16;;;;;;;6.57;2.30;;;;;;;25.47;31.75;99900.25;1086914;47;20105;-85
2023/06/05 09:01:22;;;;;;;4.05;1.85;;;;;;;25.75;31.56;99897.72;1089149;39;20681;-79
2023/06/05 09:02:23;;;;;;;4.68;2.28;;;;;;;25.37;32.32;99895.44;1086905;47;20034;-80
2023/06/05 09:03:27;;;;;;;5.63;2.60;;;;;;;25.19;32.65;99892.91;1086956;54;20034;-81
2023/06/05 09:04:30;;;;;;;5.22;2.42;;;;;;;25.31;32.74;99901.91;1087267;47;20027;-79
2023/06/05 09:05:34;;;;;;;5.57;2.20;;;;;;;25.38;32.64;99902.56;1086965;47;20026;-80
2023/06/05 09:06:36;;;;;;;5.53;2.33;;;;;;;25.62;32.16;99899.69;1087115;54;20027;-83
2023/06/05 09:08:41;;;;;;;5.78;2.30;;;;;;;25.14;33.22;99901.84;1089318;39;20687;-83
2023/06/05 09:10:46;;;;;;;5.47;2.45;;;;;;;25.01;33.29;99892.06;1087272;47;20038;-83
2023/06/05 09:12:00;;;;;;;5.15;2.22;;;;;;;25.07;33.04;99891.06;1086756;47;20049;-82
2023/06/05 09:13:05;;;;;;;4.43;2.28;;;;;;;25.54;32.36;99891.91;1087023;47;20983;-82
2023/06/05 09:14:09;;;;;;;3.97;2.28;;;;;;;25.44;32.55;99894.47;1086931;47;20038;-80
2023/06/05 09:15:21;;;;;;;3.97;1.80;;;;;;;25.34;32.63;99897.84;1086808;47;20078;-83
2023/06/05 09:16:37;;;;;;;4.38;2.17;;;;;;;25.68;32.22;99885.03;1086851;54;20927;-82
2023/06/05 09:17:41;;;;;;;4.28;2.17;;;;;;;25.75;32.26;99900.47;1086951;54;21204;-81
2023/06/05 09:18:59;;;;;;;5.15;2.75;;;;;;;26.14;31.31;99884.09;1086787;47;20022;-82
2023/06/05 09:20:00;;;;;;;4.10;2.15;;;;;;;26.06;31.55;99884.50;1086910;54;20033;-81
2023/06/05 09:21:15;;;;;;;5.05;2.38;;;;;;;26.28;31.32;99876.34;1086907;47;20029;-83
2023/06/05 09:22:35;;;;;;;5.78;2.47;;;;;;;26.17;31.40;99872.63;1086893;47;20097;-81
2023/06/05 09:23:36;;;;;;;4.43;1.90;;;;;;;25.98;31.74;99883.84;1086973;54;20030;-77
2023/06/05 09:24:41;;;;;;;7.65;2.65;;;;;;;25.60;32.22;99888.16;1087213;39;20899;-81
2023/06/05 09:25:48;;;;;;;6.35;2.45;;;;;;;25.68;32.01;99884.19;1086908;54;20110;-82
2023/06/05 09:26:55;;;;;;;3.95;2.35;;;;;;;26.11;31.66;99879.13;1086813;47;20074;-83
2023/06/05 09:29:02;;;;;;;4.78;2.45;;;;;;;26.45;31.03;99881.78;1087261;54;20017;-85
2023/06/05 09:31:08;;;;;;;5.22;2.22;;;;;;;26.37;31.14;99874.81;1087465;54;20018;-87
2023/06/05 09:33:23;;;;;;;6.15;2.75;;;;;;;26.45;31.05;99873.56;1087601;54;20030;-83
2023/06/05 09:34:28;;;;;;;5.22;2.58;;;;;;;26.36;31.20;99875.91;1086797;47;20174;-82
2023/06/05 09:35:31;;;;;;;9.50;2.85;;;;;;;26.39;31.45;99872.66;1086873;47;20023;-79
2023/06/05 09:36:35;;;;;;;6.45;2.80;;;;;;;26.00;31.58;99875.38;1086946;54;20030;-79
2023/06/05 09:37:45;;;;;;;7.53;2.88;;;;;;;25.65;32.27;99874.59;1086924;54;20037;-79
2023/06/05 09:38:46;;;;;;;7.03;2.80;;;;;;;25.65;32.08;99880.06;1087216;39;20662;-81
2023/06/05 09:39:52;;;;;;;5.50;2.67;;;;;;;25.83;31.64;99875.41;1086785;47;20026;-86
2023/06/05 09:41:07;;;;;;;5.25;2.53;;;;;;;25.91;31.91;99876.88;1087312;47;21254;-83
2023/06/05 09:42:11;;;;;;;5.68;3.22;;;;;;;25.94;32.14;99871.75;1086847;47;20077;-84
2023/06/05 09:43:20;;;;;;;6.38;3.20;;;;;;;25.95;31.76;99875.28;1086973;47;20026;-79
2023/06/05 09:44:25;;;;;;;7.18;3.20;;;;;;;25.83;31.81;99880.88;1086781;54;20070;-81
2023/06/05 09:45:41;;;;;;;4.50;3.10;;;;;;;25.87;31.61;99868.34;1087412;47;20107;-83
2023/06/05 09:47:51;;;;;;;7.30;2.85;;;;;;;25.88;31.61;99875.50;1087610;54;19991;-85
2023/06/05 09:49:59;;;;;;;5.20;2.58;;;;;;;26.45;30.97;99870.81;1087460;54;20027;-84
2023/06/05 09:51:10;;;;;;;4.13;2.50;;;;;;;26.60;30.81;99862.78;1087216;47;20026;-83
2023/06/05 09:52:16;;;;;;;5.38;2.47;;;;;;;26.84;30.39;99851.53;1087064;47;20038;-84
2023/06/05 09:54:23;;;;;;;6.60;3.63;;;;;;;26.82;30.32;99863.88;1087501;54;20017;-85
2023/06/05 09:55:25;;;;;;;6.72;2.80;;;;;;;26.90;30.15;99861.50;1086838;47;20031;-82
2023/06/05 09:56:30;;;;;;;5.90;2.83;;;;;;;26.69;30.45;99865.06;1089902;39;20665;-84
2023/06/05 09:57:35;;;;;;;5.53;3.15;;;;;;;26.87;29.98;99856.53;1087147;47;20033;-84
2023/06/05 09:58:38;;;;;;;7.00;2.63;;;;;;;26.70;30.21;99858.50;1087115;54;20031;-81
2023/06/05 09:59:53;;;;;;;8.98;3.13;;;;;;;26.53;29.88;99862.16;1087092;54;20965;-82
2023/06/05 10:00:59;;;;;;;6.18;3.20;;;;;;;26.60;29.97;99862.78;1087774;46;20030;-82
2023/06/05 10:02:05;;;;;;;5.10;3.10;;;;;;;26.41;29.99;99861.44;1090111;39;20667;-78
2023/06/05 10:03:13;;;;;;;4.65;2.72;;;;;;;26.30;29.63;99864.03;1087514;39;20891;-84
2023/06/05 10:04:19;;;;;;;4.30;2.70;;;;;;;26.58;29.15;99856.72;1087138;54;20031;-80
2023/06/05 10:05:26;;;;;;;4.72;2.40;;;;;;;26.55;28.77;99865.44;1087197;54;20042;-79
2023/06/05 10:06:28;;;;;;;4.70;2.80;;;;;;;26.11;29.14;99855.31;1087160;54;20792;-81
2023/06/05 10:07:34;;;;;;;5.72;2.75;;;;;;;26.25;29.08;99857.66;1087092;54;20061;-81
2023/06/05 10:08:36;;;;;;;4.13;2.50;;;;;;;25.99;29.24;99858.09;1087163;54;21143;-79
2023/06/05 10:09:41;;;;;;;4.75;2.78;;;;;;;26.12;29.13;99861.59;1087238;46;20947;-81
2023/06/05 10:10:43;;;;;;;4.65;2.58;;;;;;;26.42;28.40;99844.72;1087023;47;20057;-83
2023/06/05 10:11:50;;;;;;;4.85;2.70;;;;;;;26.67;27.58;99846.16;1087129;47;20031;-83
2023/06/05 10:15:20;;;;;;;9.23;3.22;;;;;;;26.22;28.18;99842.56;1087559;54;20022;-81
2023/06/05 10:16:22;;;;;;;4.40;2.70;;;;;;;26.35;28.09;99849.59;1087325;46;21014;-84
2023/06/05 10:17:26;;;;;;;6.85;2.70;;;;;;;26.61;27.93;99848.00;1087220;46;20839;-82
2023/06/05 10:18:27;;;;;;;5.93;2.40;;;;;;;26.33;27.99;99849.00;1087008;54;20085;-81
2023/06/05 10:19:32;;;;;;;5.38;2.88;;;;;;;26.45;28.04;99851.63;1088931;46;20076;-84
2023/06/05 10:20:37;;;;;;;4.95;2.70;;;;;;;26.52;27.72;99838.56;1087277;46;20094;-81
2023/06/05 10:21:40;;;;;;;4.65;2.47;;;;;;;27.04;27.25;99839.13;1087114;46;20130;-82
2023/06/05 10:22:43;;;;;;;5.07;2.67;;;;;;;27.38;26.52;99838.91;1087092;54;20034;-83
2023/06/05 10:23:51;;;;;;;4.97;2.60;;;;;;;27.50;26.48;99838.75;1087273;47;20939;-83
2023/06/05 10:24:57;;;;;;;5.07;2.88;;;;;;;27.06;26.96;99847.94;1087172;46;20041;-81
2023/06/05 10:26:02;;;;;;;4.97;2.20;;;;;;;26.71;27.46;99840.97;1087282;54;20057;-82
2023/06/05 10:27:18;;;;;;;5.43;2.70;;;;;;;26.57;27.25;99841.34;1087196;54;20070;-80
2023/06/05 10:28:38;;;;;;;6.35;2.80;;;;;;;26.62;26.60;99841.44;1087263;54;20038;-80
2023/06/05 10:29:49;;;;;;;;;;;;;;;27.14;26.31;99838.41;1087307;46;20023;-80
2023/06/05 10:31:13;;;;;;;;;;;;;;;27.30;26.23;99833.91;1087451;47;19939;-84
2023/06/05 10:32:28;;;;;;;5.13;2.45;;;;;;;27.29;25.65;99840.47;1087222;46;20860;-82
2023/06/05 10:33:46;;;;;;;4.43;2.15;;;;;;;27.11;25.94;99847.16;1087191;54;20026;-81
2023/06/05 10:34:59;;;;;;;6.15;2.80;;;;;;;27.16;25.59;99842.56;1087001;47;21019;-78
2023/06/05 10:36:10;;;;;;;8.30;2.40;;;;;;;27.11;25.20;99837.03;1087190;54;20851;-81
2023/06/05 10:37:32;;;;;;;4.88;2.40;;;;;;;27.35;25.12;99837.50;1087118;46;20034;-81
2023/06/05 10:39:00;;;;;;;6.63;2.50;;;;;;;26.92;25.00;99831.88;1087044;46;20027;-77
2023/06/05 10:40:01;;;;;;;4.97;2.70;;;;;;;27.28;25.12;99838.81;1087114;54;20030;-80
2023/06/05 10:41:07;;;;;;;7.50;2.50;;;;;;;27.42;25.29;99809.84;1087492;39;20758;-80
2023/06/05 10:42:10;;;;;;;6.88;2.70;;;;;;;27.51;24.79;99833.00;1087015;54;20022;-78
2023/06/05 10:43:31;;;;;;;7.00;2.40;;;;;;;27.28;24.80;99828.66;1087096;46;20030;-81
2023/06/05 10:44:39;;;;;;;7.10;2.75;;;;;;;27.36;24.71;99827.34;1087906;46;20114;-86
2023/06/05 10:45:45;;;;;;;4.97;2.58;;;;;;;27.59;24.32;99825.34;1088531;39;20891;-82
2023/06/05 10:46:47;;;;;;;7.57;2.72;;;;;;;27.81;24.47;99828.00;1086569;47;20019;-82
2023/06/05 10:47:54;;;;;;;5.88;2.10;;;;;;;27.65;23.69;99827.06;1086580;54;20984;-82
2023/06/05 10:49:12;;;;;;;5.30;2.47;;;;;;;27.62;23.46;99828.41;1087161;47;20078;-83
2023/06/05 10:51:42;;;;;;;5.00;2.58;;;;;;;28.27;22.91;99824.69;1087465;54;20045;-81
2023/06/05 10:52:44;;;;;;;3.90;1.90;;;;;;;28.58;23.08;99824.78;1087070;47;20022;-81
2023/06/05 10:53:48;;;;;;;6.15;2.03;;;;;;;28.70;22.71;99825.41;1086932;54;20038;-82
2023/06/05 10:54:55;;;;;;;7.32;2.88;;;;;;;28.24;22.05;99822.47;1087071;54;20030;-84
2023/06/05 10:55:59;;;;;;;7.20;2.75;;;;;;;28.03;22.93;99814.09;1090981;39;21254;-84
2023/06/05 10:57:06;;;;;;;4.80;2.58;;;;;;;28.27;22.98;99824.69;1086937;47;20030;-79
2023/06/05 10:58:13;;;;;;;7.30;2.88;;;;;;;27.81;23.04;99826.06;1086989;47;20030;-82
2023/06/05 10:59:17;;;;;;;3.67;2.08;;;;;;;27.76;23.12;99820.56;1086954;46;20061;-80
2023/06/05 11:00:21;;;;;;;5.60;2.30;;;;;;;27.78;23.18;99815.59;1087174;39;20899;-82
2023/06/05 11:01:22;;;;;;;4.90;2.50;;;;;;;27.19;23.95;99831.06;1086813;54;20059;-82
2023/06/05 11:02:26;;;;;;;5.03;2.63;;;;;;;27.06;23.78;99824.06;1086959;54;20031;-84
2023/06/05 11:03:56;;;;;;;6.35;2.58;;;;;;;27.17;23.57;99832.38;1087172;46;20053;-82
2023/06/05 11:05:15;;;;;;;6.30;2.15;;;;;;;27.51;23.60;99822.00;1087115;46;20030;-83
2023/06/05 11:06:16;;;;;;;5.07;2.58;;;;;;;27.49;23.69;99826.94;1087016;47;20057;-81
2023/06/05 11:07:23;;;;;;;5.35;2.00;;;;;;;27.32;24.25;99827.06;1086734;46;20030;-80
2023/06/05 11:08:27;;;;;;;6.32;2.28;;;;;;;27.84;23.68;99819.19;1086768;47;20026;-82
2023/06/05 11:09:28;;;;;;;4.38;2.20;;;;;;;27.72;23.71;99816.66;1087178;54;20075;-86
2023/06/05 11:10:32;;;;;;;7.30;2.50;;;;;;;27.74;23.87;99819.13;1087079;47;21293;-84
2023/06/05 11:11:54;;;;;;;5.35;2.40;;;;;;;27.89;23.52;99821.16;1087062;47;20023;-81
2023/06/05 11:13:02;;;;;;;5.65;2.72;;;;;;;27.86;23.54;99812.38;1087182;54;21159;-81
2023/06/05 11:14:03;;;;;;;6.85;2.40;;;;;;;28.04;23.57;99821.25;1087233;47;20430;-84
2023/06/05 11:15:08;;;;;;;3.95;2.30;;;;;;;28.22;23.21;99814.50;1087273;54;20045;-84
2023/06/05 11:16:28;;;;;;;4.38;2.50;;;;;;;27.78;22.63;99815.59;1087112;46;20030;-78
2023/06/05 11:17:30;;;;;;;8.93;2.33;;;;;;;27.11;23.53;99823.31;1087010;47;20096;-82
2023/06/05 11:18:39;;;;;;;5.90;2.50;;;;;;;27.21;23.85;99817.06;1087708;39;20878;-86
2023/06/05 11:19:40;;;;;;;4.88;2.33;;;;;;;27.28;24.36;99816.88;1090010;39;20330;-82
2023/06/05 11:20:52;;;;;;;6.80;2.40;;;;;;;27.31;23.82;99811.69;1088575;39;20756;-86
2023/06/05 11:22:07;;;;;;;4.93;2.35;;;;;;;27.40;23.98;99814.75;1086912;47;20949;-83
2023/06/05 11:24:22;;;;;;;6.68;2.50;;;;;;;26.69;24.74;99807.50;1087742;54;20082;-81
2023/06/05 11:25:27;;;;;;;4.75;2.30;;;;;;;26.79;24.72;99815.88;1087080;47;20023;-83
2023/06/05 11:26:44;;;;;;;5.43;2.20;;;;;;;26.91;24.67;99811.06;1087469;54;20102;-83
2023/06/05 11:27:46;;;;;;;4.47;2.50;;;;;;;27.01;24.65;99817.72;1087379;46;20832;-83
2023/06/05 11:29:53;;;;;;;7.55;3.15;;;;;;;26.82;24.45;99812.63;1087508;54;20030;-81
2023/06/05 11:30:54;;;;;;;6.50;3.28;;;;;;;26.87;24.72;99809.09;1087444;46;20856;-82
2023/06/05 11:33:09;;;;;;;5.20;2.63;;;;;;;26.62;25.39;99807.69;1087743;54;20001;-81
2023/06/05 11:34:13;;;;;;;6.88;2.58;;;;;;;26.54;25.81;99805.41;1087654;54;20027;-81
2023/06/05 11:35:18;;;;;;;4.60;2.38;;;;;;;26.44;25.90;99800.66;1087019;47;20026;-81
2023/06/05 11:36:23;;;;;;;6.07;2.50;;;;;;;26.30;25.87;99806.50;1086834;47;20057;-80
2023/06/05 11:37:27;;;;;;;6.55;2.40;;;;;;;26.38;26.41;99805.25;1087065;47;20023;-85
2023/06/05 11:38:28;;;;;;;4.60;2.50;;;;;;;26.16;26.48;99799.78;1087555;54;20034;-82
2023/06/05 11:39:50;;;;;;;4.15;2.42;;;;;;;26.44;25.84;99803.41;1087358;54;20041;-85
2023/06/05 11:40:51;;;;;;;4.47;2.25;;;;;;;26.72;25.84;99801.50;1087476;54;20031;-84
2023/06/05 11:41:55;;;;;;;6.05;2.90;;;;;;;26.79;25.51;99793.94;1087157;46;20026;-81
2023/06/05 11:43:03;;;;;;;5.03;2.92;;;;;;;26.76;25.60;99799.88;1086990;54;20105;-82
2023/06/05 11:44:07;;;;;;;4.18;2.47;;;;;;;26.99;25.15;99795.22;1086831;47;20022;-83
2023/06/05 11:45:14;;;;;;;4.82;2.40;;;;;;;26.92;24.79;99793.50;1086722;47;20067;-81
2023/06/05 11:46:15;;;;;;;5.60;2.95;;;;;;;26.79;24.88;99799.41;1087115;47;20030;-82
2023/06/05 11:47:36;;;;;;;5.38;2.70;;;;;;;26.94;24.35;99788.59;1086741;47;20027;-83
2023/06/05 11:48:44;;;;;;;4.53;2.30;;;;;;;27.05;24.46;99781.28;1086883;47;20026;-83
2023/06/05 11:49:47;;;;;;;4.43;2.40;;;;;;;27.12;24.21;99792.03;1087015;54;20030;-83
2023/06/05 11:50:53;;;;;;;6.40;3.00;;;;;;;27.07;24.46;99790.06;1087161;47;20042;-86
2023/06/05 11:51:58;;;;;;;6.93;2.50;;;;;;;27.12;24.20;99778.31;1086601;54;20038;-84
2023/06/05 11:53:05;;;;;;;6.60;3.03;;;;;;;27.12;24.44;99781.06;1086893;47;20022;-82
2023/06/05 11:54:14;;;;;;;6.05;2.70;;;;;;;27.19;24.58;99784.44;1088695;39;21050;-85
2023/06/05 11:55:21;;;;;;;7.10;3.17;;;;;;;27.01;24.53;99782.06;1086836;47;20101;-85
2023/06/05 11:56:27;;;;;;;7.82;2.80;;;;;;;26.65;24.78;99781.69;1086853;46;20030;-81
2023/06/05 11:57:28;;;;;;;6.60;2.60;;;;;;;26.58;25.21;99781.91;1086851;54;20034;-81